AirNav   Airventure
 
 783 users online  

11KS Squadron Field Airport
Erie, Kansas, USA


FAA INFORMATION EFFECTIVE 20 JULY 2017

Location

FAA Identifier: 11KS
Lat/Long: 37-27-39.9600N / 095-14-31.0200W
37-27.666000N / 095-14.517000W
37.4611000 / -95.2419500
(estimated)
Elevation: 947 ft. / 289 m (estimated)
From city: 8 miles S of ERIE, KS
Time zone: UTC +0 (year round; does not observe DST)
Zip code: 66740

Airport Operations

Airport use: Private use. Permission required prior to landing
Activation date: 03/2017
Control tower: no
ARTCC: KANSAS CITY CENTER
FSS: COLUMBIA FLIGHT SERVICE STATION
Attendance: UNATNDD
Segmented circle: no

Airport Communications

WX ASOS at PPF (15 nm SW): 118.175 (620-336-3834)
WX ASOS at CNU (17 nm NW): 127.075 (620-431-6781)

Nearby radio navigation aids

VOR radial/distance  VOR name  Freq  Var
OSWr346/18.3OSWEGO VOR/DME117.6008E
CNUr116/19.4CHANUTE VOR/DME109.2005E

 
NDB name  Hdg/Dist  Freq  Var  ID
COFFEYVILLE030/27.121205ECFV -.-. ..-. ...-

Airport Services

Runway Information

Runway 1/19

Dimensions: 1970 x 100 ft. / 600 x 30 m
Surface: turf
RUNWAY 1  RUNWAY 19
Traffic pattern: leftleft

Airport Ownership and Management from official FAA records

Ownership: Privately-owned
Owner: KENNETH A. STEENROD
18742 MCKINNLEY LAKE ROAD
PARSONS, KS 67357
Phone 620-778-9577
Manager: SQUADRON FIELD
16650 60TH ROAD
ERIE, KS 66733

Instrument Procedures

There are no published instrument procedures at 11KS.

Some nearby airports with instrument procedures:

KPPF - Tri-City Airport (15 nm SW)
KCNU - Chanute Martin Johnson Airport (17 nm NW)
2K7 - Neodesha Municipal Airport (19 nm W)
KPTS - Atkinson Municipal Airport (24 nm E)
K88 - Allen County Airport (25 nm N)
 
Loc | Ops | Rwys | IFR | FBO | Links
Com | Nav | Svcs | Stats | Notes


 
Aerial photo
No photo
 
Airport distance calculator
Flying to Squadron Field Airport? Find the distance to fly.

From to 11KS

Sunrise and sunset
Times for 27-Jul-2017
 Zulu (UTC)
Morning civil twilight10:53
Sunrise11:22
Sunset01:33
Evening civil twilight02:02

Current date and time
Zulu (UTC)  28-Jul-2017 03:36:22
 
METAR
KPPF 
14nm SW 
280252Z AUTO VRB04KT 10SM FEW044 SCT070 25/24 A2992 RMK AO2 LTG DSNT W AND NW RAE09 TSE26 SLP123 P0001 60240 T02500239 51008 $
KCNU 
17nm NW 
280252Z AUTO 05003KT 10SM BKN041 OVC055 27/24 A2994 RMK AO2 LTG DSNT SW RAE02 SLP125 P0000 60001 T02670239 53007
KPTS 
24nm E 
280315Z AUTO 05003KT 10SM SCT042 BKN070 OVC095 27/25 A2992 RMK AO2 T02730252
KCFV 
27nm SW 
280252Z AUTO 36004KT 10SM FEW060 SCT110 25/24 A2991 RMK AO2 LTG DSNT NW SLP121 60001 T02500239 53010
TAF
KCNU 
17nm NW 
271731Z 2718/2818 21010KT P6SM SCT035 BKN080 FM272100 01011KT P6SM VCTS SCT035CB BKN080 TEMPO 2721/2724 5SM TSRA BR BKN035CB FM280000 01010KT P6SM BKN080 FM280500 01007KT P6SM BKN100 FM281500 03008KT P6SM SCT100
NOTAMs
Click for the latest NOTAMs
NOTAMs are issued by the DoD/FAA and will open in a separate window not controlled by AirNav.

 

 
 

Would you like to see your business listed on this page?

 If your business provides an interesting product or service to pilots, flight crews, aircraft, or users of the Squadron Field Airport, you should consider listing it here.  To start the listing process, click on the button below
 
Add a business
 

Other Pages about Squadron Field Airport

Update a link
 
Copyright © AirNav, LLC. All rights reserved. Privacy Policy  Contact